sensor_id;sensor_type;location;lat;lon;timestamp;pressure;altitude;pressure_sealevel;temperature;humidity
82290;BME280;71891;21.336;-157.724;2023-08-24T00:02:11;101214.53;;;32.95;29.61
82290;BME280;71891;21.336;-157.724;2023-08-24T00:04:37;101210.86;;;33.31;28.87
82290;BME280;71891;21.336;-157.724;2023-08-24T00:07:02;101213.24;;;32.30;29.75
82290;BME280;71891;21.336;-157.724;2023-08-24T00:09:28;101209.54;;;32.99;28.42
82290;BME280;71891;21.336;-157.724;2023-08-24T00:11:53;101209.48;;;34.03;27.94
82290;BME280;71891;21.336;-157.724;2023-08-24T00:14:19;101212.91;;;33.52;27.76
82290;BME280;71891;21.336;-157.724;2023-08-24T00:16:45;101208.40;;;33.01;28.78
82290;BME280;71891;21.336;-157.724;2023-08-24T00:19:10;101209.10;;;32.77;29.30
82290;BME280;71891;21.336;-157.724;2023-08-24T00:21:36;101212.06;;;34.43;27.92
82290;BME280;71891;21.336;-157.724;2023-08-24T00:24:01;101206.55;;;34.92;27.05
82290;BME280;71891;21.336;-157.724;2023-08-24T00:26:27;101205.39;;;34.75;26.75
82290;BME280;71891;21.336;-157.724;2023-08-24T00:28:52;101203.30;;;34.32;26.81
82290;BME280;71891;21.336;-157.724;2023-08-24T00:31:18;101198.38;;;35.12;26.24
82290;BME280;71891;21.336;-157.724;2023-08-24T00:33:44;101196.48;;;34.21;26.23
82290;BME280;71891;21.336;-157.724;2023-08-24T00:36:09;101195.45;;;34.64;26.73
82290;BME280;71891;21.336;-157.724;2023-08-24T00:38:34;101197.94;;;34.12;26.84
82290;BME280;71891;21.336;-157.724;2023-08-24T00:41:00;101190.66;;;34.74;26.84
82290;BME280;71891;21.336;-157.724;2023-08-24T00:43:26;101186.30;;;34.94;26.67
82290;BME280;71891;21.336;-157.724;2023-08-24T00:45:52;101186.85;;;34.09;27.57
82290;BME280;71891;21.336;-157.724;2023-08-24T00:48:17;101182.29;;;34.51;27.38
82290;BME280;71891;21.336;-157.724;2023-08-24T00:50:42;101172.77;;;34.62;26.90
82290;BME280;71891;21.336;-157.724;2023-08-24T00:53:08;101179.32;;;34.60;27.11
82290;BME280;71891;21.336;-157.724;2023-08-24T00:55:33;101174.85;;;35.00;26.44
82290;BME280;71891;21.336;-157.724;2023-08-24T00:57:59;101178.32;;;34.27;27.33
82290;BME280;71891;21.336;-157.724;2023-08-24T01:00:24;101169.64;;;34.13;27.96
82290;BME280;71891;21.336;-157.724;2023-08-24T01:02:50;101171.15;;;34.56;27.44
82290;BME280;71891;21.336;-157.724;2023-08-24T01:05:15;101169.86;;;34.20;27.29
82290;BME280;71891;21.336;-157.724;2023-08-24T01:07:41;101167.29;;;34.11;28.01
82290;BME280;71891;21.336;-157.724;2023-08-24T01:10:08;101169.98;;;33.65;28.52
82290;BME280;71891;21.336;-157.724;2023-08-24T01:12:42;101172.44;;;33.14;29.52
82290;BME280;71891;21.336;-157.724;2023-08-24T01:15:04;101174.32;;;32.26;29.84
82290;BME280;71891;21.336;-157.724;2023-08-24T01:17:24;101167.94;;;33.35;29.59
82290;BME280;71891;21.336;-157.724;2023-08-24T01:19:49;101162.32;;;33.05;30.04
82290;BME280;71891;21.336;-157.724;2023-08-24T01:22:27;101162.21;;;33.83;29.24
82290;BME280;71891;21.336;-157.724;2023-08-24T01:24:42;101163.31;;;33.45;29.69
82290;BME280;71891;21.336;-157.724;2023-08-24T01:27:05;101160.48;;;34.78;27.82
82290;BME280;71891;21.336;-157.724;2023-08-24T01:29:31;101163.82;;;33.16;29.20
82290;BME280;71891;21.336;-157.724;2023-08-24T01:31:56;101165.75;;;33.73;29.05
82290;BME280;71891;21.336;-157.724;2023-08-24T01:34:22;101167.73;;;33.80;29.13
82290;BME280;71891;21.336;-157.724;2023-08-24T01:36:47;101166.13;;;33.97;28.56
82290;BME280;71891;21.336;-157.724;2023-08-24T01:39:20;101169.77;;;33.60;28.67
82290;BME280;71891;21.336;-157.724;2023-08-24T01:41:40;101167.61;;;33.63;28.88
82290;BME280;71891;21.336;-157.724;2023-08-24T01:44:05;101169.65;;;32.82;28.42
82290;BME280;71891;21.336;-157.724;2023-08-24T01:46:30;101167.21;;;33.80;28.33
82290;BME280;71891;21.336;-157.724;2023-08-24T01:48:56;101163.77;;;34.24;28.24
82290;BME280;71891;21.336;-157.724;2023-08-24T01:51:21;101164.57;;;33.90;27.96
82290;BME280;71891;21.336;-157.724;2023-08-24T01:53:46;101166.03;;;34.84;27.69
82290;BME280;71891;21.336;-157.724;2023-08-24T01:56:13;101162.92;;;34.39;28.02
82290;BME280;71891;21.336;-157.724;2023-08-24T01:58:38;101158.37;;;34.32;28.48
82290;BME280;71891;21.336;-157.724;2023-08-24T02:01:03;101167.19;;;33.36;28.77
82290;BME280;71891;21.336;-157.724;2023-08-24T02:03:28;101160.52;;;33.99;29.22
82290;BME280;71891;21.336;-157.724;2023-08-24T02:05:54;101168.76;;;33.88;28.35
82290;BME280;71891;21.336;-157.724;2023-08-24T02:08:20;101169.46;;;34.07;28.34
82290;BME280;71891;21.336;-157.724;2023-08-24T02:10:45;101164.01;;;33.94;28.02
82290;BME280;71891;21.336;-157.724;2023-08-24T02:13:11;101162.53;;;34.27;27.86
82290;BME280;71891;21.336;-157.724;2023-08-24T02:15:38;101167.42;;;33.90;28.12
82290;BME280;71891;21.336;-157.724;2023-08-24T02:18:02;101168.95;;;34.33;27.95
82290;BME280;71891;21.336;-157.724;2023-08-24T02:20:27;101168.76;;;34.17;27.91
82290;BME280;71891;21.336;-157.724;2023-08-24T02:22:53;101177.02;;;34.13;28.10
82290;BME280;71891;21.336;-157.724;2023-08-24T02:25:18;101179.15;;;34.00;28.50
82290;BME280;71891;21.336;-157.724;2023-08-24T02:27:44;101176.05;;;34.07;28.64
82290;BME280;71891;21.336;-157.724;2023-08-24T02:30:10;101179.48;;;32.60;29.83
82290;BME280;71891;21.336;-157.724;2023-08-24T02:32:35;101180.17;;;32.61;30.35
82290;BME280;71891;21.336;-157.724;2023-08-24T02:35:01;101175.52;;;32.27;30.23
82290;BME280;71891;21.336;-157.724;2023-08-24T02:37:26;101174.10;;;33.34;29.80
82290;BME280;71891;21.336;-157.724;2023-08-24T02:39:52;101174.31;;;32.45;30.17
82290;BME280;71891;21.336;-157.724;2023-08-24T02:42:17;101174.17;;;33.70;29.24
82290;BME280;71891;21.336;-157.724;2023-08-24T02:44:43;101169.26;;;32.62;30.32
82290;BME280;71891;21.336;-157.724;2023-08-24T02:47:09;101169.32;;;32.86;30.71
82290;BME280;71891;21.336;-157.724;2023-08-24T02:49:34;101175.76;;;32.43;31.42
82290;BME280;71891;21.336;-157.724;2023-08-24T02:52:00;101177.78;;;31.04;32.43
82290;BME280;71891;21.336;-157.724;2023-08-24T02:54:25;101176.81;;;30.74;32.60
82290;BME280;71891;21.336;-157.724;2023-08-24T02:56:51;101177.28;;;31.08;32.92
82290;BME280;71891;21.336;-157.724;2023-08-24T02:59:16;101171.47;;;30.23;33.96
82290;BME280;71891;21.336;-157.724;2023-08-24T03:01:42;101170.99;;;30.98;33.40
82290;BME280;71891;21.336;-157.724;2023-08-24T03:04:07;101175.36;;;29.61;33.73
82290;BME280;71891;21.336;-157.724;2023-08-24T03:06:33;101183.55;;;31.01;33.59
82290;BME280;71891;21.336;-157.724;2023-08-24T03:09:00;101187.79;;;31.20;33.54
82290;BME280;71891;21.336;-157.724;2023-08-24T03:11:24;101183.58;;;30.81;33.95
82290;BME280;71891;21.336;-157.724;2023-08-24T03:13:50;101185.89;;;30.64;33.95
82290;BME280;71891;21.336;-157.724;2023-08-24T03:16:15;101184.73;;;31.17;33.48
82290;BME280;71891;21.336;-157.724;2023-08-24T03:18:41;101181.37;;;29.71;33.36
82290;BME280;71891;21.336;-157.724;2023-08-24T03:21:07;101188.37;;;30.75;34.35
82290;BME280;71891;21.336;-157.724;2023-08-24T03:23:32;101182.35;;;30.84;33.92
82290;BME280;71891;21.336;-157.724;2023-08-24T03:25:58;101179.77;;;31.22;33.26
82290;BME280;71891;21.336;-157.724;2023-08-24T03:28:23;101184.28;;;30.77;33.61
82290;BME280;71891;21.336;-157.724;2023-08-24T03:30:52;101185.24;;;30.41;33.79
82290;BME280;71891;21.336;-157.724;2023-08-24T03:33:15;101185.79;;;29.97;34.40
82290;BME280;71891;21.336;-157.724;2023-08-24T03:35:40;101188.14;;;30.44;33.94
82290;BME280;71891;21.336;-157.724;2023-08-24T03:38:06;101191.56;;;30.49;33.90
82290;BME280;71891;21.336;-157.724;2023-08-24T03:40:31;101195.19;;;30.76;33.73
82290;BME280;71891;21.336;-157.724;2023-08-24T03:42:57;101194.21;;;30.14;34.38
82290;BME280;71891;21.336;-157.724;2023-08-24T03:45:23;101191.78;;;29.93;34.15
82290;BME280;71891;21.336;-157.724;2023-08-24T03:47:48;101193.55;;;30.57;33.87
82290;BME280;71891;21.336;-157.724;2023-08-24T03:50:14;101194.39;;;29.01;34.42
82290;BME280;71891;21.336;-157.724;2023-08-24T03:52:40;101195.44;;;30.16;34.67
82290;BME280;71891;21.336;-157.724;2023-08-24T03:55:06;101200.00;;;30.07;35.19
82290;BME280;71891;21.336;-157.724;2023-08-24T03:57:31;101197.32;;;29.74;35.19
82290;BME280;71891;21.336;-157.724;2023-08-24T03:59:56;101203.47;;;28.08;34.82
82290;BME280;71891;21.336;-157.724;2023-08-24T04:02:22;101204.44;;;30.52;34.01
82290;BME280;71891;21.336;-157.724;2023-08-24T04:04:47;101204.14;;;30.15;35.09
82290;BME280;71891;21.336;-157.724;2023-08-24T04:07:13;101208.94;;;30.13;34.70
82290;BME280;71891;21.336;-157.724;2023-08-24T04:09:38;101206.32;;;29.43;35.30
82290;BME280;71891;21.336;-157.724;2023-08-24T04:12:03;101206.69;;;30.14;35.00
82290;BME280;71891;21.336;-157.724;2023-08-24T04:14:28;101211.10;;;28.33;35.80
82290;BME280;71891;21.336;-157.724;2023-08-24T04:16:54;101213.33;;;29.92;35.75
82290;BME280;71891;21.336;-157.724;2023-08-24T04:19:19;101223.43;;;29.35;36.21
82290;BME280;71891;21.336;-157.724;2023-08-24T04:21:45;101224.11;;;29.88;36.53
82290;BME280;71891;21.336;-157.724;2023-08-24T04:24:10;101227.91;;;30.22;36.03
82290;BME280;71891;21.336;-157.724;2023-08-24T04:26:36;101235.67;;;29.35;35.76
82290;BME280;71891;21.336;-157.724;2023-08-24T04:29:02;101232.10;;;29.75;35.59
82290;BME280;71891;21.336;-157.724;2023-08-24T04:31:27;101232.22;;;29.65;35.62
82290;BME280;71891;21.336;-157.724;2023-08-24T04:33:53;101233.26;;;29.70;36.21
82290;BME280;71891;21.336;-157.724;2023-08-24T04:36:18;101236.93;;;29.77;35.92
82290;BME280;71891;21.336;-157.724;2023-08-24T04:38:44;101243.11;;;29.11;36.83
82290;BME280;71891;21.336;-157.724;2023-08-24T04:41:10;101240.57;;;29.79;36.24
82290;BME280;71891;21.336;-157.724;2023-08-24T04:43:35;101247.79;;;29.44;36.80
82290;BME280;71891;21.336;-157.724;2023-08-24T04:46:01;101248.16;;;29.27;36.55
82290;BME280;71891;21.336;-157.724;2023-08-24T04:48:27;101252.69;;;29.67;37.00
82290;BME280;71891;21.336;-157.724;2023-08-24T04:50:52;101254.07;;;29.05;37.70
82290;BME280;71891;21.336;-157.724;2023-08-24T04:53:19;101255.65;;;29.48;37.37
82290;BME280;71891;21.336;-157.724;2023-08-24T04:55:44;101260.79;;;29.98;36.78
82290;BME280;71891;21.336;-157.724;2023-08-24T04:58:09;101267.69;;;29.41;36.94
82290;BME280;71891;21.336;-157.724;2023-08-24T05:00:35;101269.03;;;28.75;37.77
82290;BME280;71891;21.336;-157.724;2023-08-24T05:03:06;101267.37;;;28.96;37.81
82290;BME280;71891;21.336;-157.724;2023-08-24T05:05:26;101266.65;;;28.49;37.18
82290;BME280;71891;21.336;-157.724;2023-08-24T05:07:53;101272.95;;;28.84;37.57
82290;BME280;71891;21.336;-157.724;2023-08-24T05:10:17;101271.05;;;29.12;37.46
82290;BME280;71891;21.336;-157.724;2023-08-24T05:12:43;101278.60;;;29.49;37.18
82290;BME280;71891;21.336;-157.724;2023-08-24T05:15:09;101280.38;;;28.72;37.71
82290;BME280;71891;21.336;-157.724;2023-08-24T05:17:34;101288.41;;;28.85;38.27
82290;BME280;71891;21.336;-157.724;2023-08-24T05:19:59;101286.78;;;28.53;38.01
82290;BME280;71891;21.336;-157.724;2023-08-24T05:22:25;101287.14;;;29.87;37.16
82290;BME280;71891;21.336;-157.724;2023-08-24T05:24:51;101296.14;;;28.64;38.16
82290;BME280;71891;21.336;-157.724;2023-08-24T05:27:16;101304.34;;;28.55;38.39
82290;BME280;71891;21.336;-157.724;2023-08-24T05:29:42;101308.50;;;27.45;38.38
82290;BME280;71891;21.336;-157.724;2023-08-24T05:32:08;101304.19;;;29.49;37.40
82290;BME280;71891;21.336;-157.724;2023-08-24T05:34:33;101306.17;;;28.63;37.56
82290;BME280;71891;21.336;-157.724;2023-08-24T05:36:59;101310.74;;;28.93;37.13
82290;BME280;71891;21.336;-157.724;2023-08-24T05:39:24;101318.23;;;28.13;37.67
82290;BME280;71891;21.336;-157.724;2023-08-24T05:41:52;101320.39;;;28.69;38.08
82290;BME280;71891;21.336;-157.724;2023-08-24T05:44:16;101321.40;;;28.29;37.66
82290;BME280;71891;21.336;-157.724;2023-08-24T05:46:41;101323.87;;;28.30;37.85
82290;BME280;71891;21.336;-157.724;2023-08-24T05:49:07;101329.27;;;27.38;37.99
82290;BME280;71891;21.336;-157.724;2023-08-24T05:51:32;101335.66;;;28.79;37.55
82290;BME280;71891;21.336;-157.724;2023-08-24T05:53:58;101336.18;;;28.95;37.48
82290;BME280;71891;21.336;-157.724;2023-08-24T05:56:24;101335.87;;;28.46;37.42
82290;BME280;71891;21.336;-157.724;2023-08-24T05:58:49;101337.99;;;28.25;37.74
82290;BME280;71891;21.336;-157.724;2023-08-24T06:01:15;101339.72;;;29.28;36.99
82290;BME280;71891;21.336;-157.724;2023-08-24T06:03:41;101345.00;;;29.05;37.11
82290;BME280;71891;21.336;-157.724;2023-08-24T06:06:06;101347.96;;;28.29;37.49
82290;BME280;71891;21.336;-157.724;2023-08-24T06:08:32;101349.06;;;28.15;37.41
82290;BME280;71891;21.336;-157.724;2023-08-24T06:10:58;101357.23;;;28.40;37.72
82290;BME280;71891;21.336;-157.724;2023-08-24T06:13:23;101359.80;;;28.40;37.48
82290;BME280;71891;21.336;-157.724;2023-08-24T06:15:49;101359.69;;;29.18;36.59
82290;BME280;71891;21.336;-157.724;2023-08-24T06:18:15;101364.58;;;28.77;36.73
82290;BME280;71891;21.336;-157.724;2023-08-24T06:20:41;101359.39;;;28.71;37.14
82290;BME280;71891;21.336;-157.724;2023-08-24T06:23:06;101363.63;;;28.39;37.38
82290;BME280;71891;21.336;-157.724;2023-08-24T06:25:31;101365.02;;;28.67;37.12
82290;BME280;71891;21.336;-157.724;2023-08-24T06:27:57;101366.97;;;28.77;37.57
82290;BME280;71891;21.336;-157.724;2023-08-24T06:30:22;101365.28;;;28.48;37.62
82290;BME280;71891;21.336;-157.724;2023-08-24T06:32:48;101369.09;;;28.59;38.15
82290;BME280;71891;21.336;-157.724;2023-08-24T06:35:14;101366.48;;;28.04;38.12
82290;BME280;71891;21.336;-157.724;2023-08-24T06:37:40;101370.54;;;28.16;38.67
82290;BME280;71891;21.336;-157.724;2023-08-24T06:40:06;101377.16;;;28.35;38.80
82290;BME280;71891;21.336;-157.724;2023-08-24T06:42:31;101381.42;;;28.19;39.52
82290;BME280;71891;21.336;-157.724;2023-08-24T06:44:56;101378.58;;;27.07;40.20
82290;BME280;71891;21.336;-157.724;2023-08-24T06:47:22;101382.20;;;27.98;39.68
82290;BME280;71891;21.336;-157.724;2023-08-24T06:49:48;101391.34;;;28.29;39.59
82290;BME280;71891;21.336;-157.724;2023-08-24T06:52:13;101389.84;;;28.32;39.42
82290;BME280;71891;21.336;-157.724;2023-08-24T06:54:39;101388.67;;;27.51;40.18
82290;BME280;71891;21.336;-157.724;2023-08-24T06:57:05;101396.18;;;27.89;39.66
82290;BME280;71891;21.336;-157.724;2023-08-24T06:59:30;101394.18;;;27.42;39.67
82290;BME280;71891;21.336;-157.724;2023-08-24T07:01:56;101397.15;;;28.19;39.63
82290;BME280;71891;21.336;-157.724;2023-08-24T07:04:21;101405.41;;;26.86;39.10
82290;BME280;71891;21.336;-157.724;2023-08-24T07:06:47;101408.23;;;27.98;39.21
82290;BME280;71891;21.336;-157.724;2023-08-24T07:09:13;101408.92;;;28.24;39.47
82290;BME280;71891;21.336;-157.724;2023-08-24T07:11:39;101412.48;;;28.81;38.52
82290;BME280;71891;21.336;-157.724;2023-08-24T07:14:04;101409.95;;;28.07;38.94
82290;BME280;71891;21.336;-157.724;2023-08-24T07:16:29;101417.67;;;28.00;38.61
82290;BME280;71891;21.336;-157.724;2023-08-24T07:18:55;101415.48;;;27.95;39.05
82290;BME280;71891;21.336;-157.724;2023-08-24T07:21:21;101418.74;;;27.80;38.68
82290;BME280;71891;21.336;-157.724;2023-08-24T07:23:46;101423.12;;;27.53;39.42
82290;BME280;71891;21.336;-157.724;2023-08-24T07:26:13;101423.04;;;28.30;39.25
82290;BME280;71891;21.336;-157.724;2023-08-24T07:28:37;101427.22;;;28.39;38.95
82290;BME280;71891;21.336;-157.724;2023-08-24T07:31:07;101424.48;;;28.02;38.98
82290;BME280;71891;21.336;-157.724;2023-08-24T07:33:29;101427.20;;;28.05;39.19
82290;BME280;71891;21.336;-157.724;2023-08-24T07:35:54;101425.08;;;28.01;38.97
82290;BME280;71891;21.336;-157.724;2023-08-24T07:38:20;101425.03;;;28.06;38.63
82290;BME280;71891;21.336;-157.724;2023-08-24T07:40:45;101420.14;;;28.10;38.94
82290;BME280;71891;21.336;-157.724;2023-08-24T07:43:11;101420.94;;;28.01;39.66
82290;BME280;71891;21.336;-157.724;2023-08-24T07:45:37;101425.98;;;28.30;38.43
82290;BME280;71891;21.336;-157.724;2023-08-24T07:48:03;101432.85;;;28.07;39.93
82290;BME280;71891;21.336;-157.724;2023-08-24T07:50:28;101437.85;;;27.58;40.07
82290;BME280;71891;21.336;-157.724;2023-08-24T07:52:54;101439.15;;;27.61;40.42
82290;BME280;71891;21.336;-157.724;2023-08-24T07:55:19;101432.97;;;27.18;39.71
82290;BME280;71891;21.336;-157.724;2023-08-24T07:57:45;101439.94;;;27.98;40.06
82290;BME280;71891;21.336;-157.724;2023-08-24T08:00:12;101441.18;;;27.93;39.75
82290;BME280;71891;21.336;-157.724;2023-08-24T08:02:36;101443.37;;;28.76;37.71
82290;BME280;71891;21.336;-157.724;2023-08-24T08:05:02;101443.63;;;30.08;35.83
82290;BME280;71891;21.336;-157.724;2023-08-24T08:07:28;101442.74;;;30.91;34.18
82290;BME280;71891;21.336;-157.724;2023-08-24T08:09:53;101438.17;;;31.28;33.51
82290;BME280;71891;21.336;-157.724;2023-08-24T08:12:19;101433.21;;;30.73;33.70
82290;BME280;71891;21.336;-157.724;2023-08-24T08:14:45;101429.68;;;30.66;32.76
82290;BME280;71891;21.336;-157.724;2023-08-24T08:17:10;101428.38;;;32.07;32.24
82290;BME280;71891;21.336;-157.724;2023-08-24T08:19:35;101431.10;;;30.50;34.12
82290;BME280;71891;21.336;-157.724;2023-08-24T08:22:01;101429.22;;;30.55;34.71
82290;BME280;71891;21.336;-157.724;2023-08-24T08:24:27;101424.39;;;29.63;35.41
82290;BME280;71891;21.336;-157.724;2023-08-24T08:26:52;101420.05;;;30.45;34.30
82290;BME280;71891;21.336;-157.724;2023-08-24T08:29:18;101424.42;;;31.00;33.04
82290;BME280;71891;21.336;-157.724;2023-08-24T08:31:44;101427.16;;;30.05;34.36
82290;BME280;71891;21.336;-157.724;2023-08-24T08:34:09;101424.51;;;31.18;33.06
82290;BME280;71891;21.336;-157.724;2023-08-24T08:36:35;101431.87;;;31.40;32.51
82290;BME280;71891;21.336;-157.724;2023-08-24T08:39:01;101422.15;;;29.74;33.94
82290;BME280;71891;21.336;-157.724;2023-08-24T08:41:38;101417.80;;;30.04;33.58
82290;BME280;71891;21.336;-157.724;2023-08-24T08:43:52;101421.85;;;29.98;33.71
82290;BME280;71891;21.336;-157.724;2023-08-24T08:46:18;101423.10;;;30.51;33.12
82290;BME280;71891;21.336;-157.724;2023-08-24T08:48:44;101420.10;;;30.30;33.52
82290;BME280;71891;21.336;-157.724;2023-08-24T08:51:09;101430.61;;;29.98;34.32
82290;BME280;71891;21.336;-157.724;2023-08-24T08:53:34;101428.66;;;30.52;34.58
82290;BME280;71891;21.336;-157.724;2023-08-24T08:56:01;101427.48;;;29.86;35.19
82290;BME280;71891;21.336;-157.724;2023-08-24T08:58:27;101431.19;;;30.59;34.07
82290;BME280;71891;21.336;-157.724;2023-08-24T09:00:51;101430.53;;;30.27;35.08
82290;BME280;71891;21.336;-157.724;2023-08-24T09:03:18;101431.30;;;30.86;33.93
82290;BME280;71891;21.336;-157.724;2023-08-24T09:05:43;101429.16;;;31.60;33.35
82290;BME280;71891;21.336;-157.724;2023-08-24T09:08:08;101426.26;;;31.07;33.22
82290;BME280;71891;21.336;-157.724;2023-08-24T09:10:34;101422.78;;;31.55;32.40
82290;BME280;71891;21.336;-157.724;2023-08-24T09:13:00;101420.63;;;32.05;31.91
82290;BME280;71891;21.336;-157.724;2023-08-24T09:15:26;101418.09;;;31.66;32.02
82290;BME280;71891;21.336;-157.724;2023-08-24T09:17:51;101422.34;;;31.18;32.79
82290;BME280;71891;21.336;-157.724;2023-08-24T09:20:17;101419.88;;;30.23;33.13
82290;BME280;71891;21.336;-157.724;2023-08-24T09:22:42;101417.08;;;30.53;34.11
82290;BME280;71891;21.336;-157.724;2023-08-24T09:25:10;101410.32;;;30.17;33.06
82290;BME280;71891;21.336;-157.724;2023-08-24T09:27:35;101411.92;;;31.27;32.48
82290;BME280;71891;21.336;-157.724;2023-08-24T09:29:59;101408.76;;;29.75;33.03
82290;BME280;71891;21.336;-157.724;2023-08-24T09:32:27;101405.91;;;31.56;31.93
82290;BME280;71891;21.336;-157.724;2023-08-24T09:34:51;101408.47;;;30.69;32.37
82290;BME280;71891;21.336;-157.724;2023-08-24T09:37:17;101405.64;;;30.85;32.95
82290;BME280;71891;21.336;-157.724;2023-08-24T09:39:42;101400.94;;;30.75;32.51
82290;BME280;71891;21.336;-157.724;2023-08-24T09:42:07;101404.08;;;31.61;31.49
82290;BME280;71891;21.336;-157.724;2023-08-24T09:44:33;101399.22;;;31.31;31.18
82290;BME280;71891;21.336;-157.724;2023-08-24T09:46:59;101403.22;;;31.54;31.73
82290;BME280;71891;21.336;-157.724;2023-08-24T09:49:24;101401.18;;;31.17;32.28
82290;BME280;71891;21.336;-157.724;2023-08-24T09:51:50;101404.15;;;31.20;32.55
82290;BME280;71891;21.336;-157.724;2023-08-24T09:54:16;101401.25;;;31.04;31.47
82290;BME280;71891;21.336;-157.724;2023-08-24T09:56:42;101400.40;;;31.40;31.53
82290;BME280;71891;21.336;-157.724;2023-08-24T09:59:12;101398.01;;;30.45;31.57
82290;BME280;71891;21.336;-157.724;2023-08-24T10:01:32;101394.39;;;32.10;30.87
82290;BME280;71891;21.336;-157.724;2023-08-24T10:04:00;101396.03;;;30.65;32.54
82290;BME280;71891;21.336;-157.724;2023-08-24T10:06:28;101396.29;;;30.81;32.38
82290;BME280;71891;21.336;-157.724;2023-08-24T10:08:54;101396.59;;;30.47;32.26
82290;BME280;71891;21.336;-157.724;2023-08-24T10:11:19;101393.85;;;31.29;31.38
82290;BME280;71891;21.336;-157.724;2023-08-24T10:13:46;101398.35;;;30.52;31.62
82290;BME280;71891;21.336;-157.724;2023-08-24T10:16:08;101396.62;;;31.46;31.44
82290;BME280;71891;21.336;-157.724;2023-08-24T10:18:32;101394.64;;;30.99;32.41
82290;BME280;71891;21.336;-157.724;2023-08-24T10:20:58;101389.53;;;30.86;33.00
82290;BME280;71891;21.336;-157.724;2023-08-24T10:23:23;101394.03;;;31.44;32.08
82290;BME280;71891;21.336;-157.724;2023-08-24T10:25:51;101392.07;;;31.47;31.91
82290;BME280;71891;21.336;-157.724;2023-08-24T10:28:15;101391.44;;;31.48;31.57
82290;BME280;71891;21.336;-157.724;2023-08-24T10:30:41;101387.74;;;30.90;31.87
82290;BME280;71891;21.336;-157.724;2023-08-24T10:33:06;101392.77;;;30.24;33.40
82290;BME280;71891;21.336;-157.724;2023-08-24T10:35:32;101387.90;;;31.11;32.55
82290;BME280;71891;21.336;-157.724;2023-08-24T10:37:59;101390.78;;;31.52;32.68
82290;BME280;71891;21.336;-157.724;2023-08-24T10:40:31;101388.50;;;29.91;32.52
82290;BME280;71891;21.336;-157.724;2023-08-24T10:42:48;101384.94;;;30.22;33.77
82290;BME280;71891;21.336;-157.724;2023-08-24T10:45:14;101387.22;;;30.45;33.49
82290;BME280;71891;21.336;-157.724;2023-08-24T10:47:44;101383.31;;;30.43;33.52
82290;BME280;71891;21.336;-157.724;2023-08-24T10:50:05;101380.86;;;29.89;34.36
82290;BME280;71891;21.336;-157.724;2023-08-24T10:52:34;101385.32;;;30.77;33.53
82290;BME280;71891;21.336;-157.724;2023-08-24T10:54:56;101384.44;;;30.15;33.42
82290;BME280;71891;21.336;-157.724;2023-08-24T10:57:23;101380.84;;;31.37;32.59
82290;BME280;71891;21.336;-157.724;2023-08-24T10:59:58;101377.14;;;31.01;32.10
82290;BME280;71891;21.336;-157.724;2023-08-24T11:02:19;101380.34;;;30.70;32.51
82290;BME280;71891;21.336;-157.724;2023-08-24T11:04:39;101372.37;;;30.46;32.65
82290;BME280;71891;21.336;-157.724;2023-08-24T11:07:04;101373.15;;;30.54;31.90
82290;BME280;71891;21.336;-157.724;2023-08-24T11:11:58;101363.16;;;30.94;31.70
82290;BME280;71891;21.336;-157.724;2023-08-24T11:14:22;101363.49;;;30.49;31.89
82290;BME280;71891;21.336;-157.724;2023-08-24T11:16:48;101363.19;;;31.19;31.02
82290;BME280;71891;21.336;-157.724;2023-08-24T11:19:13;101359.37;;;30.77;32.35
82290;BME280;71891;21.336;-157.724;2023-08-24T11:21:40;101356.92;;;31.30;31.36
82290;BME280;71891;21.336;-157.724;2023-08-24T11:24:05;101357.47;;;30.48;32.24
82290;BME280;71891;21.336;-157.724;2023-08-24T11:26:30;101356.18;;;30.31;33.18
82290;BME280;71891;21.336;-157.724;2023-08-24T11:28:55;101347.26;;;29.62;33.45
82290;BME280;71891;21.336;-157.724;2023-08-24T11:31:21;101350.18;;;30.72;32.95
82290;BME280;71891;21.336;-157.724;2023-08-24T11:33:46;101345.70;;;29.70;32.84
82290;BME280;71891;21.336;-157.724;2023-08-24T11:36:12;101338.35;;;30.84;32.28
82290;BME280;71891;21.336;-157.724;2023-08-24T11:38:38;101332.50;;;31.07;32.42
82290;BME280;71891;21.336;-157.724;2023-08-24T11:41:11;101332.32;;;30.99;31.95
82290;BME280;71891;21.336;-157.724;2023-08-24T11:43:29;101328.45;;;30.65;32.17
82290;BME280;71891;21.336;-157.724;2023-08-24T11:45:55;101332.69;;;30.55;31.87
82290;BME280;71891;21.336;-157.724;2023-08-24T11:48:24;101331.63;;;31.21;31.44
82290;BME280;71891;21.336;-157.724;2023-08-24T11:50:46;101322.94;;;30.49;31.89
82290;BME280;71891;21.336;-157.724;2023-08-24T11:53:11;101320.34;;;30.52;32.43
82290;BME280;71891;21.336;-157.724;2023-08-24T11:55:41;101319.31;;;30.48;32.71
82290;BME280;71891;21.336;-157.724;2023-08-24T11:58:03;101316.54;;;31.00;32.32
82290;BME280;71891;21.336;-157.724;2023-08-24T12:00:29;101314.67;;;30.84;32.69
82290;BME280;71891;21.336;-157.724;2023-08-24T12:02:54;101313.97;;;30.65;32.47
82290;BME280;71891;21.336;-157.724;2023-08-24T12:05:22;101312.49;;;29.76;32.44
82290;BME280;71891;21.336;-157.724;2023-08-24T12:07:46;101313.85;;;30.83;32.03
82290;BME280;71891;21.336;-157.724;2023-08-24T12:10:13;101309.70;;;31.06;31.40
82290;BME280;71891;21.336;-157.724;2023-08-24T12:12:36;101301.61;;;31.25;31.41
82290;BME280;71891;21.336;-157.724;2023-08-24T12:15:02;101303.78;;;30.96;31.32